Date,TemperatureHighF,TemperatureAvgF,TemperatureLowF,DewpointHighF,DewpointAvgF,DewpointLowF,HumidityHigh,HumidityAvg,HumidityLow,PressureMaxIn,PressureMinIn,WindSpeedMaxMPH,WindSpeedAvgMPH,GustSpeedMaxMPH,PrecipitationSumIn
2013-1-1,38,34,26,36,31,21,95,90,82,30.27,30.08,13,4,14,0.00
2013-1-2,33,27,20,22,18,15,85,70,48,30.35,30.25,9,2,12,0.00
2013-1-3,40,31,22,29,23,16,84,72,58,30.48,30.30,7,0,9,0.00
2013-1-4,45,34,26,29,26,23,91,72,47,30.51,30.43,9,1,11,0.00
2013-1-5,44,37,29,32,29,26,88,74,56,30.44,30.26,8,1,8,0.00
2013-1-6,44,37,33,35,30,26,92,78,65,30.43,30.20,12,2,14,0.00
2013-1-7,33,33,33,27,27,27,77,77,77,30.43,30.43,6,6,10,0.00
2013-1-8,33,33,33,27,27,27,77,77,77,30.43,30.43,6,6,10,0.00
2013-1-9,33,33,33,27,27,27,77,77,77,30.43,30.43,6,6,10,0.00
2013-1-10,33,33,33,27,27,27,77,77,77,30.43,30.43,6,6,10,0.00
2013-1-11,33,33,33,27,27,27,77,77,77,30.43,30.43,6,6,10,0.00
2013-1-12,33,33,33,27,27,27,77,77,77,30.43,30.43,6,6,10,0.00
2013-1-13,33,33,33,27,27,27,77,77,77,30.43,30.43,6,6,10,0.00
2013-1-14,33,33,33,27,27,27,77,77,77,30.43,30.43,6,6,10,0.00
2013-1-15,33,33,33,27,27,27,77,77,77,30.43,30.43,6,6,10,0.00
2013-1-16,33,33,33,27,27,27,77,77,77,30.43,30.43,6,6,10,0.00
2013-1-17,33,33,33,27,27,27,77,77,77,30.43,30.43,6,6,10,0.00
2013-1-18,33,33,33,27,27,27,77,77,77,30.43,30.43,6,6,10,0.00
2013-1-19,33,33,33,27,27,27,77,77,77,30.43,30.43,6,6,10,0.00
2013-1-20,33,33,33,27,27,27,77,77,77,30.43,30.43,6,6,10,0.00
2013-1-21,33,33,33,27,27,27,77,77,77,30.43,30.43,6,6,10,0.00
2013-1-22,33,33,33,27,27,27,77,77,77,30.43,30.43,6,6,10,0.00
2013-1-23,33,33,33,27,27,27,77,77,77,30.43,30.43,6,6,10,0.00
2013-1-24,33,33,33,27,27,27,77,77,77,30.43,30.43,6,6,10,0.00
2013-1-25,33,33,33,27,27,27,77,77,77,30.43,30.43,6,6,10,0.00
2013-1-26,33,33,33,27,27,27,77,77,77,30.43,30.43,6,6,10,0.00
2013-1-27,33,33,33,27,27,27,77,77,77,30.43,30.43,6,6,10,0.00
2013-1-28,33,33,33,27,27,27,77,77,77,30.43,30.43,6,6,10,0.00
2013-1-29,33,33,33,27,27,27,77,77,77,30.43,30.43,6,6,10,0.00
2013-1-30,33,33,33,27,27,27,77,77,77,30.43,30.43,6,6,10,0.00
2013-1-31,33,33,33,27,27,27,77,77,77,30.43,30.43,6,6,10,0.00
2013-2-1,33,33,33,27,27,27,77,77,77,30.43,30.43,6,6,10,0.00
2013-2-2,33,33,33,27,27,27,77,77,77,30.43,30.43,6,6,10,0.00
2013-2-3,33,33,33,27,27,27,77,77,77,30.43,30.43,6,6,10,0.00
2013-2-4,33,33,33,27,27,27,77,77,77,30.43,30.43,6,6,10,0.00
2013-2-5,33,33,33,27,27,27,77,77,77,30.43,30.43,6,6,10,0.00
2013-2-6,33,33,33,27,27,27,77,77,77,30.43,30.43,6,6,10,0.00
2013-2-7,33,33,33,27,27,27,77,77,77,30.43,30.43,6,6,10,0.00
2013-2-8,33,33,33,27,27,27,77,77,77,30.43,30.43,6,6,10,0.00
2013-2-9,33,33,33,27,27,27,77,77,77,30.43,30.43,6,6,10,0.00
2013-2-10,33,33,33,27,27,27,77,77,77,30.43,30.43,6,6,10,0.00
2013-2-11,33,33,33,27,27,27,77,77,77,30.43,30.43,6,6,10,0.00
2013-2-12,33,33,33,27,27,27,77,77,77,30.43,30.43,6,6,10,0.00
2013-2-13,33,33,33,27,27,27,77,77,77,30.43,30.43,6,6,10,0.00
2013-2-14,33,33,33,27,27,27,77,77,77,30.43,30.43,6,6,10,0.00
2013-2-15,33,33,33,27,27,27,77,77,77,30.43,30.43,6,6,10,0.00
2013-2-16,33,33,33,27,27,27,77,77,77,30.43,30.43,6,6,10,0.00
2013-2-17,33,33,33,27,27,27,77,77,77,30.43,30.43,6,6,10,0.00
2013-2-18,33,33,33,27,27,27,77,77,77,30.43,30.43,6,6,10,0.00
2013-2-19,33,33,33,27,27,27,77,77,77,30.43,30.43,6,6,10,0.00
2013-2-20,33,33,33,27,27,27,77,77,77,30.43,30.43,6,6,10,0.00
2013-2-21,33,33,33,27,27,27,77,77,77,30.43,30.43,6,6,10,0.00
2013-2-22,33,33,33,27,27,27,77,77,77,30.43,30.43,6,6,10,0.00
2013-2-23,33,33,33,27,27,27,77,77,77,30.43,30.43,6,6,10,0.00
2013-2-24,33,33,33,27,27,27,77,77,77,30.43,30.43,6,6,10,0.00
2013-2-25,56,42,33,41,29,27,77,64,34,30.43,29.49,21,8,23,9.53
2013-2-26,50,45,39,48,41,34,96,86,74,29.71,29.38,20,3,20,0.51
2013-2-27,40,37,34,34,32,28,88,81,66,29.94,29.71,10,2,12,0.02
2013-2-28,39,35,33,32,30,27,90,80,69,30.13,29.93,11,1,11,0.02
2013-3-1,39,34,32,35,32,29,94,90,77,30.16,30.08,14,1,15,0.17
2013-3-2,33,31,30,29,26,18,93,82,61,30.25,30.12,13,2,15,0.00
2013-3-3,41,33,23,24,20,16,83,58,36,30.25,30.12,9,1,10,0.01
2013-3-4,57,47,38,39,28,21,69,50,35,30.15,29.82,20,5,21,0.01
2013-3-5,49,41,33,47,36,21,95,83,58,30.09,29.78,12,2,15,0.34
2013-3-6,42,36,33,29,26,23,74,67,57,30.38,30.09,14,3,17,0.00
2013-3-7,42,36,31,31,28,25,80,71,58,30.46,30.36,13,4,14,0.00
2013-3-8,54,42,32,37,30,27,84,63,36,30.49,30.28,11,3,13,0.00
2013-3-9,63,53,42,38,33,30,70,49,31,30.28,29.97,17,4,18,0.00
2013-3-10,67,59,50,54,45,37,96,62,39,29.98,29.73,28,5,29,0.80
2013-3-11,53,43,38,52,37,30,95,80,66,30.04,29.75,14,2,17,0.00
2013-3-12,53,42,30,31,28,20,87,60,33,30.20,30.03,12,1,12,0.00
2013-3-13,44,38,33,29,22,18,66,53,38,30.45,30.20,15,2,15,0.00
2013-3-14,43,37,28,36,28,22,89,70,48,30.46,30.19,11,2,11,0.10
2013-3-15,76,57,38,51,42,29,84,60,37,30.19,29.79,19,2,22,0.00
2013-3-16,72,61,45,52,47,39,81,62,49,29.98,29.75,19,4,19,0.00
2013-3-17,45,43,40,43,40,38,94,90,79,30.07,29.74,18,6,20,0.62
2013-3-18,52,46,40,49,43,37,96,88,73,30.02,29.68,20,2,20,0.73
2013-3-19,55,44,36,37,26,12,92,54,20,30.23,30.02,12,2,12,0.00
2013-3-20,45,38,30,32,24,17,75,57,43,30.23,30.11,16,3,18,0.00
2013-3-21,40,33,22,22,16,12,76,51,35,30.16,30.01,12,2,13,0.00
2013-3-22,42,38,34,28,24,20,63,55,49,30.09,30.01,12,5,12,0.00
2013-3-23,54,47,41,44,34,26,87,60,49,30.05,29.73,14,4,16,0.10
2013-3-24,47,41,34,44,38,29,95,88,81,29.78,29.48,19,4,20,0.09
2013-3-25,38,34,33,31,28,26,91,78,67,30.20,29.78,15,3,16,0.00
2013-3-26,42,36,31,30,28,25,92,72,51,30.40,30.20,11,1,12,0.02
2013-3-27,49,40,31,35,28,24,86,61,44,30.46,30.34,12,1,12,0.00
2013-3-28,58,49,40,41,32,28,67,53,37,30.42,30.28,8,2,9,0.00
2013-3-29,55,50,45,48,44,36,92,80,59,30.31,30.20,12,2,13,0.69
2013-3-30,54,49,46,49,46,44,96,89,74,30.23,29.93,11,2,11,0.48
2013-3-31,64,53,48,52,49,45,96,85,57,29.98,29.88,6,0,6,0.01
2013-4-1,56,49,44,46,36,27,92,62,36,30.21,29.92,15,3,17,0.00
2013-4-2,47,43,38,30,24,17,64,47,30,30.34,30.21,14,2,14,0.00
2013-4-3,52,46,38,29,24,18,57,42,29,30.38,30.23,20,6,22,0.00
2013-4-4,48,45,41,44,33,22,90,66,37,30.23,30.04,13,2,14,0.17
2013-4-5,71,54,38,46,38,32,95,61,27,30.17,30.05,8,1,9,0.00
2013-4-6,75,62,48,46,42,37,89,53,26,30.11,29.89,20,3,21,0.00
2013-4-7,74,66,61,56,50,42,71,58,46,30.00,29.92,18,3,18,0.00
2013-4-8,76,69,61,58,54,50,71,60,49,29.95,29.87,21,3,22,0.00
2013-4-9,79,71,62,64,60,54,81,70,58,30.03,29.89,18,3,22,0.00
2013-4-10,85,76,68,65,63,60,80,64,48,29.94,29.69,21,4,22,0.01
2013-4-11,73,55,48,64,53,43,95,91,70,29.74,29.60,9,0,10,2.81
2013-4-12,60,50,38,43,38,34,90,66,47,30.05,29.74,16,2,16,0.00
2013-4-13,66,53,40,46,38,32,78,60,40,30.12,29.97,8,1,9,0.00
2013-4-14,76,63,54,52,46,43,74,56,34,29.97,29.78,29,4,29,0.00
2013-4-15,80,68,58,60,56,51,83,67,46,29.95,29.83,15,3,15,0.00
2013-4-16,82,73,66,69,65,60,88,77,63,30.05,29.90,19,3,20,0.00
2013-4-17,87,76,66,70,66,63,93,72,49,30.08,29.83,18,2,21,0.00
2013-4-18,82,74,48,67,62,45,93,70,52,29.84,29.58,27,5,29,1.95
2013-4-19,48,44,40,45,35,31,93,70,54,30.11,29.67,13,1,13,0.23
2013-4-20,61,50,35,39,34,29,89,58,31,30.34,30.11,16,1,16,0.00
2013-4-21,66,55,43,41,34,27,65,47,26,30.43,30.25,14,3,14,0.00
2013-4-22,74,62,50,53,43,34,66,52,35,30.28,30.05,11,2,12,0.00
2013-4-23,75,66,57,59,54,46,77,66,53,30.10,29.86,21,3,21,0.00
2013-4-24,67,47,42,58,41,35,94,80,57,30.31,29.85,12,1,13,0.51
2013-4-25,68,52,38,46,39,35,94,64,33,30.40,30.30,15,1,18,0.00
2013-4-26,54,52,51,50,45,39,92,77,60,30.46,30.27,16,2,16,0.64
2013-4-27,60,56,51,58,54,49,96,94,90,30.32,29.90,16,3,18,0.95
2013-4-28,62,58,54,58,55,52,96,90,77,29.97,29.88,6,0,7,0.01
2013-4-29,71,62,52,59,55,51,96,79,57,30.03,29.88,11,1,11,0.00
2013-4-30,83,68,56,59,56,50,93,67,35,30.00,29.90,7,1,8,0.00
2013-5-1,80,70,60,65,59,55,86,70,52,30.09,29.98,12,1,12,0.00
2013-5-2,76,67,61,62,59,57,91,77,54,30.15,30.01,10,0,10,0.02
2013-5-3,75,62,43,62,55,41,94,80,55,30.02,29.75,16,2,20,0.83
2013-5-4,52,46,42,45,42,40,95,85,65,29.99,29.86,8,1,9,0.01
2013-5-5,61,53,45,54,48,42,94,84,69,29.97,29.83,8,0,11,0.01
2013-5-6,65,58,53,57,54,50,95,89,74,29.93,29.82,11,1,11,0.02
2013-5-7,74,63,54,60,57,53,96,82,57,30.01,29.92,7,0,7,0.01
2013-5-8,82,69,56,62,57,54,95,70,41,30.05,29.95,7,0,7,0.00
2013-5-9,82,72,62,64,61,59,94,70,50,30.04,29.91,20,1,20,0.00
2013-5-10,78,68,62,66,63,59,95,83,60,29.94,29.82,9,0,9,0.50
2013-5-11,72,61,56,59,52,40,94,74,50,30.11,29.94,14,1,14,0.02
2013-5-12,64,56,46,42,36,28,74,48,30,30.22,30.11,13,1,13,0.00
2013-5-13,71,60,47,53,42,32,92,58,28,30.26,30.13,7,0,8,0.00
2013-5-14,88,72,56,61,55,46,81,57,36,30.13,29.91,16,1,17,0.00
2013-5-15,87,76,65,61,57,53,71,53,34,30.03,29.90,12,1,14,0.00
2013-5-16,84,73,67,65,60,56,82,64,47,29.99,29.89,11,0,13,0.04
2013-5-17,70,67,65,66,64,59,95,89,76,29.99,29.92,11,2,11,0.27
2013-5-18,80,72,67,70,67,65,97,86,64,30.00,29.91,4,0,4,0.00
2013-5-19,90,78,70,75,71,67,96,79,52,29.93,29.83,11,1,12,0.00
2013-5-20,88,78,70,72,70,67,92,76,56,29.95,29.80,14,1,15,0.00
2013-5-21,80,70,66,70,66,63,95,87,67,29.93,29.78,17,1,20,1.50
2013-5-22,80,70,63,67,63,59,96,80,52,29.83,29.73,13,1,13,0.21
2013-5-23,76,68,58,62,58,51,89,70,52,30.14,29.83,14,1,16,0.00
2013-5-24,71,61,51,53,48,42,86,65,39,30.35,30.14,10,2,12,0.00
2013-5-25,76,66,54,59,51,46,82,61,40,30.35,30.14,8,1,8,0.00
2013-5-26,81,71,63,64,58,52,83,65,48,30.21,30.07,8,1,9,0.00
2013-5-27,86,75,62,66,61,56,85,63,41,30.08,29.91,15,1,17,0.00
2013-5-28,88,79,70,69,64,56,82,63,44,30.02,29.92,16,1,21,0.00
2013-5-29,87,78,67,69,64,57,81,64,49,30.06,29.92,13,1,13,0.00
2013-5-30,85,78,68,73,69,65,94,75,59,30.03,29.90,23,2,23,0.68
2013-5-31,80,74,69,74,70,66,95,88,80,29.98,29.84,17,2,20,0.54
2013-6-1,77,70,65,72,67,64,96,91,71,29.96,29.76,17,1,17,5.35
2013-6-2,81,70,65,66,63,60,97,79,53,29.96,29.88,8,1,8,0.01
2013-6-3,76,68,62,61,59,55,91,75,53,30.05,29.94,10,1,11,0.00
2013-6-4,81,71,60,65,59,54,85,69,50,30.06,29.95,9,1,9,0.00
2013-6-5,86,76,68,69,65,60,88,69,47,29.97,29.78,14,1,14,0.00
2013-6-6,83,74,66,69,66,64,96,80,55,29.82,29.73,17,1,17,2.94
2013-6-7,80,73,68,66,64,61,83,73,54,29.86,29.75,10,1,10,0.00
2013-6-8,79,72,62,67,63,60,95,75,52,29.98,29.85,6,0,6,0.00
2013-6-9,76,70,67,70,66,62,96,89,78,29.99,29.80,8,1,9,1.64
2013-6-10,86,73,65,72,67,64,97,83,54,29.91,29.81,10,0,10,0.07
2013-6-11,96,80,67,78,71,66,97,77,52,29.99,29.88,7,1,7,0.00
2013-6-12,96,86,76,78,74,71,85,69,53,30.00,29.80,12,1,13,0.00
2013-6-13,86,80,71,75,69,62,82,70,57,29.94,29.76,12,1,14,0.00
2013-6-14,84,75,65,66,60,56,88,62,45,30.05,29.92,11,2,11,0.00
2013-6-15,85,77,68,70,66,60,94,72,49,30.09,29.95,10,1,10,0.00
2013-6-16,93,80,72,75,70,65,86,73,51,30.02,29.91,13,0,13,0.00
2013-6-17,89,76,68,75,71,66,94,86,59,29.93,29.85,13,1,13,1.29
2013-6-18,86,75,68,72,67,65,94,77,57,29.95,29.82,14,2,14,0.03
2013-6-19,86,74,67,72,67,63,91,79,58,30.03,29.92,5,0,5,0.02
2013-6-20,90,80,72,74,71,66,92,74,48,30.11,30.02,7,1,8,0.00
2013-6-21,91,82,73,75,72,68,87,73,54,30.15,30.05,10,1,10,0.00
2013-6-22,88,81,73,73,71,68,88,73,55,30.13,30.02,11,1,11,0.00
2013-6-23,88,80,72,72,70,67,91,74,57,30.09,29.98,9,1,9,0.00
2013-6-24,84,78,75,76,72,70,93,84,71,30.11,30.00,18,1,19,0.00
2013-6-25,94,84,74,77,74,72,91,74,54,30.03,29.86,10,1,12,0.00
2013-6-26,92,83,75,77,73,69,94,74,58,29.92,29.72,11,1,17,1.03
2013-6-27,98,84,71,80,73,70,96,73,45,29.84,29.75,12,0,12,0.01
2013-6-28,94,82,72,75,69,59,86,66,41,29.81,29.63,7,0,7,0.00
2013-6-29,89,77,65,68,63,59,86,63,45,29.68,29.59,7,0,16,0.00
2013-6-30,79,69,62,69,64,60,94,86,64,29.80,29.66,10,0,15,0.08
2013-7-1,75,69,67,67,66,64,93,89,76,29.88,29.77,12,1,12,0.06
2013-7-2,79,70,62,68,64,60,96,84,63,30.01,29.85,10,0,12,0.00
2013-7-3,81,70,61,67,63,59,96,80,57,30.09,30.00,6,0,6,0.00
2013-7-4,79,73,69,71,68,65,94,85,71,30.06,29.99,15,3,15,0.00
2013-7-5,82,74,70,72,69,67,93,84,67,30.08,29.99,9,1,11,0.00
2013-7-6,84,74,67,73,69,64,96,86,61,30.08,29.96,12,2,15,1.33
2013-7-7,88,77,66,75,70,64,95,79,54,30.08,30.01,9,1,10,0.00
2013-7-8,88,80,71,77,74,69,95,82,66,30.13,30.02,8,1,8,0.00
2013-7-9,95,85,73,78,75,71,94,75,53,30.08,29.95,8,0,8,0.00
2013-7-10,94,84,78,80,75,72,84,74,59,29.98,29.84,9,0,9,0.00
2013-7-11,85,79,73,76,70,61,93,74,54,29.98,29.89,12,1,12,0.00
2013-7-12,84,76,68,66,62,57,80,63,45,30.05,29.96,15,3,15,0.00
2013-7-13,84,77,66,69,64,59,87,64,46,30.04,29.96,11,2,11,0.00
2013-7-14,87,79,72,74,71,67,89,78,63,30.11,30.00,10,2,11,0.00
2013-7-15,86,81,76,76,74,71,90,79,67,30.21,30.10,10,2,10,0.00
2013-7-16,94,85,76,77,74,70,86,70,51,30.29,30.20,5,0,5,0.00
2013-7-17,96,86,77,79,76,73,94,73,49,30.29,30.14,4,0,5,0.00
2013-7-18,89,82,76,79,75,69,92,79,57,30.16,30.01,18,1,18,0.00
2013-7-19,94,83,72,75,73,70,95,74,50,30.05,29.89,10,0,10,0.00
2013-7-20,94,82,72,76,73,69,94,74,51,29.93,29.79,13,1,15,0.30
2013-7-21,86,76,72,77,72,69,96,88,71,29.94,29.83,19,1,19,0.45
2013-7-22,89,78,72,77,74,71,97,86,65,29.87,29.79,10,0,11,0.72
2013-7-23,93,80,70,75,73,66,95,79,52,29.91,29.74,19,1,25,1.27
2013-7-24,82,74,68,70,67,62,96,78,58,29.96,29.80,12,1,12,0.00
2013-7-25,81,73,66,64,62,60,87,69,51,30.06,29.94,8,1,8,0.00
2013-7-26,84,75,66,68,65,60,90,73,52,30.05,29.93,7,1,8,0.00
2013-7-27,84,74,68,70,66,58,93,76,58,29.98,29.86,11,1,11,0.05
2013-7-28,79,71,63,60,56,53,80,62,45,30.05,29.96,11,1,11,0.00
2013-7-29,82,72,63,67,62,57,89,71,53,30.16,30.05,6,0,6,0.00
2013-7-30,73,71,66,71,67,63,95,88,75,30.15,30.02,9,1,9,0.61
2013-7-31,85,77,71,76,72,69,96,87,73,30.03,29.91,8,1,10,0.00
2013-8-1,86,77,70,73,69,67,94,78,55,30.04,29.95,8,1,8,0.00
2013-8-2,86,77,68,71,68,64,96,74,51,30.02,29.94,7,1,7,0.00
2013-8-3,84,76,71,76,72,68,96,88,77,30.04,29.92,8,0,8,1.81
2013-8-4,83,76,71,73,66,61,95,71,51,30.13,30.03,10,2,10,0.00
2013-8-5,78,72,69,68,64,60,88,77,61,30.09,29.92,8,1,9,0.11
2013-8-6,84,77,71,76,73,68,95,88,74,29.95,29.87,6,0,6,0.03
2013-8-7,83,76,72,77,74,70,96,91,78,29.95,29.86,10,0,10,0.14
2013-8-8,84,78,73,78,75,72,97,90,78,29.94,29.86,5,0,6,0.01
2013-8-9,91,78,72,79,74,71,97,89,65,30.01,29.89,13,0,14,0.50
2013-8-10,82,77,74,76,74,72,96,91,77,30.09,29.99,7,0,8,0.14
2013-8-11,86,79,73,76,74,72,97,85,68,30.10,30.01,4,0,4,0.00
2013-8-12,88,77,72,78,74,70,96,90,71,30.05,29.88,11,0,13,0.49
2013-8-13,84,76,70,74,70,64,97,82,53,30.02,29.89,10,1,10,0.00
2013-8-14,74,68,62,65,57,53,84,67,49,30.13,30.02,16,3,16,0.00
2013-8-15,78,69,61,61,57,54,85,67,49,30.10,30.02,12,3,13,0.00
2013-8-16,77,71,65,66,63,58,87,76,65,30.08,30.02,10,2,11,0.04
2013-8-17,80,71,66,71,66,62,95,86,67,30.13,30.02,15,2,16,1.22
2013-8-18,81,72,66,71,68,64,96,88,71,30.14,30.05,5,0,5,0.06
2013-8-19,85,76,68,73,70,67,97,83,58,30.11,30.00,6,0,6,0.00
2013-8-20,88,78,71,74,72,69,95,80,59,30.09,30.00,10,0,11,0.00
2013-8-21,88,80,72,76,73,70,96,82,60,30.12,30.02,6,0,6,0.00
2013-8-22,90,81,72,78,74,70,96,79,57,30.10,29.98,4,0,4,0.00
2013-8-23,89,79,72,76,73,70,95,83,59,30.05,29.98,14,1,15,0.01
2013-8-24,87,80,74,74,72,68,95,77,58,30.16,30.05,9,2,9,0.00
2013-8-25,85,79,73,75,72,66,90,78,70,30.25,30.16,10,1,10,0.00
2013-8-26,90,79,71,76,72,68,91,81,62,30.24,30.09,7,0,7,0.00
2013-8-27,92,80,70,76,72,66,90,77,58,30.11,30.00,6,0,7,0.00
2013-8-28,96,83,72,74,71,68,89,71,44,30.03,29.96,6,0,6,0.00
2013-8-29,95,83,72,78,74,69,91,75,50,30.00,29.91,5,0,5,0.00
2013-8-30,98,85,74,78,75,72,93,74,45,29.95,29.84,4,0,4,0.00
2013-8-31,96,85,76,78,76,73,89,74,53,29.87,29.74,0,0,0,0.00
2013-9-1,86,76,70,76,72,67,96,86,70,29.87,29.74,22,1,23,1.40
2013-9-2,86,77,70,78,72,66,95,85,71,29.89,29.81,8,0,9,0.19
2013-9-3,84,76,69,69,66,63,87,73,50,30.03,29.89,7,1,7,0.00
2013-9-4,83,74,67,67,63,60,83,69,50,30.13,30.03,6,1,6,0.00
2013-9-5,84,75,67,70,66,63,94,75,55,30.17,30.09,5,1,6,0.00
2013-9-6,86,78,70,74,69,66,94,76,56,30.15,30.03,6,0,6,0.00
2013-9-7,92,79,69,73,71,68,97,78,50,30.06,29.93,5,0,6,0.00
2013-9-8,87,80,71,78,73,68,92,80,63,29.97,29.88,4,0,4,0.00
2013-9-9,93,83,77,79,75,71,90,79,55,29.99,29.91,9,1,9,0.00
2013-9-10,87,81,76,78,74,72,91,81,63,30.12,29.99,3,0,3,0.00
2013-9-11,89,78,73,79,73,70,94,84,66,30.14,30.03,0,0,0,0.00
2013-9-12,88,80,72,77,72,64,94,76,61,30.02,29.89,0,0,0,0.00
2013-9-13,75,70,64,64,58,53,81,66,51,30.04,29.95,0,0,0,0.00
2013-9-14,73,65,59,57,52,48,80,64,46,30.13,30.03,0,0,0,0.00
2013-9-15,83,70,60,61,58,54,91,68,41,30.09,30.03,0,0,0,0.00
2013-9-16,75,70,64,67,63,57,89,79,71,30.17,30.05,0,0,0,0.00
2013-9-17,81,72,64,68,64,61,92,78,59,30.19,30.06,0,0,0,0.00
2013-9-18,81,75,70,73,70,66,92,84,73,30.11,30.00,0,0,0,0.00
2013-9-19,88,77,71,75,71,68,94,82,64,30.07,29.93,0,0,0,0.00
2013-9-20,84,73,68,73,69,66,96,87,68,29.96,29.79,0,0,0,2.70
2013-9-21,73,66,60,68,57,51,96,73,48,29.89,29.78,0,0,0,0.08
2013-9-22,74,66,59,58,55,52,86,68,49,29.97,29.88,0,0,0,0.00
2013-9-23,75,67,59,62,57,54,85,72,53,30.01,29.91,0,0,0,0.00
2013-9-24,81,70,63,69,64,59,95,82,61,29.95,29.79,0,0,0,0.42
2013-9-25,80,71,65,70,67,63,97,87,66,29.85,29.77,8,0,8,0.00
2013-9-26,82,73,67,68,66,62,96,81,59,30.00,29.84,7,1,7,0.00
2013-9-27,79,70,62,66,61,57,91,75,49,30.11,30.00,8,0,9,0.00
2013-9-28,81,71,65,64,62,59,89,73,48,30.13,30.02,12,1,13,0.00
2013-9-29,67,64,62,63,61,59,96,90,77,30.06,29.97,10,1,11,2.41
2013-9-30,71,67,64,65,64,63,97,90,80,30.00,29.94,11,1,13,0.01
2013-10-1,78,71,67,71,68,64,96,89,77,30.06,29.97,8,1,9,0.00
2013-10-2,80,72,69,74,70,68,97,93,80,30.09,30.01,6,0,6,0.65
2013-10-3,82,74,70,72,69,67,96,83,62,30.05,29.94,8,1,8,0.01
2013-10-4,81,74,68,74,70,66,95,88,78,30.05,29.96,8,1,9,0.00
2013-10-5,83,75,70,74,71,68,96,89,71,30.00,29.83,7,0,8,0.00
2013-10-6,70,61,55,67,59,53,97,95,89,29.90,29.80,9,0,11,0.00
2013-10-7,65,58,46,54,50,44,95,75,59,30.14,29.94,11,1,11,0.00
2013-10-8,68,61,54,52,50,46,87,68,46,30.20,30.10,17,4,17,0.00
2013-10-9,71,61,57,63,55,50,87,81,73,30.17,30.09,7,1,7,0.00
2013-10-10,76,71,66,68,66,63,96,83,67,30.14,30.01,4,0,4,0.00
2013-10-11,77,68,62,67,62,60,94,82,61,30.06,29.96,6,1,6,0.00
2013-10-12,76,68,62,68,64,61,95,88,75,30.12,29.99,7,0,7,0.00
2013-10-13,75,67,62,66,58,47,96,73,53,30.28,30.12,8,1,9,0.00
2013-10-14,72,64,57,63,55,47,87,72,58,30.26,30.08,9,2,10,0.00
2013-10-15,72,67,64,66,64,61,95,90,78,30.08,29.93,13,1,13,0.00
2013-10-16,66,59,55,65,54,51,96,84,71,30.01,29.92,9,0,9,0.00
2013-10-17,56,53,50,54,49,47,93,86,80,30.01,29.94,9,1,9,0.00
2013-10-18,68,57,46,54,50,45,95,77,51,30.07,29.94,6,0,6,0.00
2013-10-19,57,51,44,52,45,40,94,83,61,30.06,29.89,9,0,10,0.00
2013-10-20,64,52,41,46,43,38,92,74,47,30.11,30.00,14,1,14,0.00
2013-10-21,69,55,43,53,47,40,92,76,51,30.05,29.96,10,0,11,0.00
2013-10-22,59,52,46,48,41,36,91,68,46,30.08,29.85,11,1,13,0.00
2013-10-23,51,46,42,45,37,33,91,70,53,30.14,29.90,14,1,14,0.00
2013-10-24,51,46,41,40,34,27,80,63,46,30.41,30.13,14,1,14,0.00
2013-10-25,49,40,32,32,29,26,89,64,42,30.56,30.34,10,1,10,0.00
2013-10-26,59,46,34,46,37,28,82,70,53,30.34,30.07,10,0,10,0.00
2013-10-27,62,54,45,55,45,39,91,73,51,30.14,30.04,6,0,7,0.00
2013-10-28,67,59,53,56,54,51,94,84,62,30.25,30.07,4,0,4,0.00
2013-10-29,63,58,53,62,56,52,97,93,87,30.28,30.11,8,0,8,0.00
2013-10-30,77,68,63,67,63,60,96,84,68,30.14,29.97,15,1,16,0.00
2013-10-31,70,66,58,66,62,56,95,89,77,29.97,29.47,31,3,31,0.00
2013-11-1,69,57,50,56,50,45,97,78,46,29.85,29.65,12,0,14,0.00
2013-11-2,60,50,43,47,43,39,93,78,57,30.20,29.85,10,0,14,0.00
2013-11-3,57,48,39,43,39,34,95,72,44,30.35,30.19,12,1,12,0.00
2013-11-4,62,55,48,50,44,40,80,68,51,30.33,30.23,14,1,14,0.00
2013-11-5,66,59,54,54,47,43,80,64,52,30.35,30.15,12,1,12,0.00
2013-11-6,60,55,44,58,50,40,95,83,64,30.23,30.00,21,2,21,0.00
2013-11-7,51,44,38,40,33,28,89,67,41,30.40,30.23,10,1,13,0.00
2013-11-8,56,47,38,42,35,30,96,67,37,30.43,30.23,7,1,7,0.00
2013-11-9,64,49,41,41,37,34,81,66,41,30.27,30.15,19,1,20,0.00
2013-11-10,60,50,42,45,37,29,95,64,34,30.40,30.25,9,1,9,0.00
2013-11-11,63,53,42,46,38,32,86,59,36,30.33,30.16,16,1,16,0.00
2013-11-12,48,37,31,43,29,23,91,73,51,30.71,30.29,19,6,19,0.00
2013-11-13,42,35,27,27,22,19,84,63,46,30.76,30.46,10,1,11,0.00
2013-11-14,56,42,27,25,21,18,79,46,23,30.46,30.19,15,1,15,0.00
2013-11-15,53,47,41,50,38,22,92,71,45,30.21,30.07,12,1,12,0.00
2013-11-16,66,59,53,62,56,50,93,90,85,30.08,29.83,18,3,19,0.00
2013-11-17,74,66,55,68,59,34,95,80,41,29.95,29.57,25,4,27,0.00
2013-11-18,60,51,44,42,33,30,77,52,35,30.29,29.95,9,0,9,0.00
2013-11-19,48,43,39,33,31,28,74,61,49,30.36,30.24,16,3,16,0.00
2013-11-20,58,47,36,43,35,30,83,65,42,30.26,30.13,13,3,13,0.00
2013-11-21,62,56,50,56,48,38,95,77,57,30.26,30.17,14,2,14,0.00
2013-11-22,59,50,42,57,48,38,96,91,84,30.44,30.17,18,3,18,0.00
2013-11-23,45,37,26,39,27,14,90,69,30,30.68,30.42,22,6,24,0.00
2013-11-24,32,27,21,19,16,14,80,64,48,30.77,30.53,16,5,16,0.00
2013-11-25,40,34,29,32,24,16,92,67,45,30.53,30.23,12,2,12,0.00
2013-11-26,38,36,32,34,31,22,93,83,66,30.24,30.02,20,3,21,0.00
2013-11-27,32,26,21,24,12,9,72,57,42,30.42,30.14,20,2,20,0.00
2013-11-28,43,30,20,21,14,10,72,54,38,30.49,30.35,13,2,16,0.00
2013-11-29,50,43,34,34,31,28,89,64,44,30.61,30.46,9,1,9,0.00
2013-11-30,56,45,34,33,28,24,79,53,29,30.46,30.21,15,2,16,0.00
2013-12-1,54,49,43,41,36,28,78,61,49,30.21,29.94,7,1,7,0.00
2013-12-2,57,50,46,48,44,40,91,79,72,29.93,29.73,6,1,8,0.00
2013-12-3,60,54,48,53,50,46,97,88,72,29.80,29.71,9,1,10,0.00
2013-12-4,74,65,53,62,59,51,97,83,62,29.80,29.66,19,2,19,0.00
2013-12-5,68,44,31,63,40,29,93,87,79,30.24,29.78,17,4,18,0.00
2013-12-6,32,27,23,30,25,20,94,92,88,30.53,30.16,16,5,16,0.00
2013-12-7,25,21,17,21,18,13,91,86,82,30.69,30.44,16,5,17,0.00
2013-12-8,33,30,23,32,28,20,96,94,90,30.44,30.08,12,2,12,0.00
2013-12-9,32,29,26,30,25,19,95,85,72,30.35,30.17,14,2,14,0.00
2013-12-10,35,28,22,24,21,19,89,77,60,30.45,30.27,11,1,11,0.00
2013-12-11,40,30,23,30,24,17,93,79,59,30.67,30.44,15,2,16,0.00
2013-12-12,31,24,17,18,14,10,79,68,52,30.69,30.43,12,1,12,0.00
2013-12-13,41,34,23,34,23,16,85,65,49,30.44,30.02,11,2,11,0.00
2013-12-14,40,37,32,39,34,30,96,91,85,30.13,29.83,17,2,17,0.00
2013-12-15,32,31,29,30,27,25,92,85,79,30.29,30.13,14,1,14,0.00
2013-12-16,53,42,30,38,34,28,92,75,53,30.21,30.09,12,1,12,0.00
2013-12-17,45,38,32,38,32,25,91,77,60,30.33,30.11,8,0,8,0.00
2013-12-18,50,40,29,31,26,20,87,59,34,30.39,30.13,16,2,17,0.00
2013-12-19,61,52,42,49,42,31,79,69,54,30.17,29.96,21,4,23,0.00
2013-12-20,64,61,56,62,56,49,94,85,71,29.96,29.82,20,4,22,0.00
2013-12-21,70,62,47,64,60,46,98,92,76,29.83,29.47,24,3,24,0.00
2013-12-22,51,44,34,48,42,31,97,93,85,30.24,29.61,14,1,14,0.00
2013-12-23,35,32,27,32,26,21,91,78,69,30.54,30.24,11,2,12,0.00
2013-12-24,28,23,18,22,14,8,82,69,55,30.69,30.48,14,3,15,0.00
2013-12-25,44,33,21,28,22,14,85,65,48,30.49,30.33,12,2,13,0.00
2013-12-26,42,35,28,31,28,25,92,77,60,30.49,30.35,9,0,9,0.00
2013-12-27,52,39,28,37,30,24,86,71,51,30.51,30.38,9,1,9,0.00
2013-12-28,46,40,33,37,32,27,91,72,57,30.39,30.02,8,1,8,0.00
2013-12-29,51,39,28,43,35,23,96,85,68,30.25,29.96,17,2,17,0.00
2013-12-30,30,26,22,23,19,15,85,74,62,30.37,30.24,11,1,11,0.00
2013-12-31,42,31,20,26,22,16,90,71,47,30.51,30.34,7,1,7,0.00
2014-1-1,48,39,29,37,30,26,90,72,51,30.35,29.99,14,2,14,0.00
2014-1-2,42,28,18,39,22,12,92,80,68,30.50,29.92,19,3,21,0.00